Main page
METAR-TAF:

METAR-TAF

Airports :

Yamagata Airport

Yamagata, Japan

latitude: 38-25N, longitude: 140-22E, elevation: 105 m

Current weather observation

The report was made 6 hours and 42 minutes ago, at 10:00 UTC
Wind 5 kt from the East
Temperature 23°C
Humidity 83%
Pressure 1014 hPa
Visibility 10 km or more
Few clouds at a height of 800 ft
Broken clouds at a height of 13000 ft
light rain,

METAR: RJSC 141000Z 09005KT 9999 -RA FEW008 BKN130 23/20 Q1014

Time: 01:42 (16:42 UTC)


TAF: missing

Weather observations and forecasts of more than 4000 airports (METAR and TAF reports).

The available stations are represented by yellow and red dots on the map.

Hover mouse over dot to see the name of the station.

Then click to see weather observations and forecasts.

To change the map : click on the green buttons with a black cross to zoom in, on the green button with a dash to zoom out, or on the green arrows for adjacent maps.


METAR-TAF: